sensor_id;sensor_type;location;lat;lon;timestamp;P1;durP1;ratioP1;P2;durP2;ratioP2
23185;SDS011;11761;51.324;4.590;2023-01-29T00:01:08;87.78;;;44.90;;
23185;SDS011;11761;51.324;4.590;2023-01-29T00:03:34;98.05;;;48.40;;
23185;SDS011;11761;51.324;4.590;2023-01-29T00:06:04;94.50;;;46.70;;
23185;SDS011;11761;51.324;4.590;2023-01-29T00:08:32;91.35;;;46.28;;
23185;SDS011;11761;51.324;4.590;2023-01-29T00:11:03;95.88;;;48.05;;
23185;SDS011;11761;51.324;4.590;2023-01-29T00:13:30;88.15;;;46.05;;
23185;SDS011;11761;51.324;4.590;2023-01-29T00:15:57;90.32;;;44.95;;
23185;SDS011;11761;51.324;4.590;2023-01-29T00:18:23;87.30;;;44.85;;
23185;SDS011;11761;51.324;4.590;2023-01-29T00:20:50;85.90;;;42.60;;
23185;SDS011;11761;51.324;4.590;2023-01-29T00:23:16;85.70;;;43.72;;
23185;SDS011;11761;51.324;4.590;2023-01-29T00:25:42;85.07;;;42.88;;
23185;SDS011;11761;51.324;4.590;2023-01-29T00:28:09;82.43;;;41.95;;
23185;SDS011;11761;51.324;4.590;2023-01-29T00:30:36;85.28;;;40.83;;
23185;SDS011;11761;51.324;4.590;2023-01-29T00:33:03;81.40;;;41.83;;
23185;SDS011;11761;51.324;4.590;2023-01-29T00:35:29;84.88;;;40.47;;
23185;SDS011;11761;51.324;4.590;2023-01-29T00:37:56;79.40;;;41.15;;
23185;SDS011;11761;51.324;4.590;2023-01-29T00:40:23;87.95;;;41.80;;
23185;SDS011;11761;51.324;4.590;2023-01-29T00:42:50;82.88;;;41.72;;
23185;SDS011;11761;51.324;4.590;2023-01-29T00:45:35;86.25;;;40.92;;
23185;SDS011;11761;51.324;4.590;2023-01-29T00:48:02;79.53;;;37.92;;
23185;SDS011;11761;51.324;4.590;2023-01-29T00:50:29;87.53;;;41.55;;
23185;SDS011;11761;51.324;4.590;2023-01-29T00:52:55;72.57;;;37.55;;
23185;SDS011;11761;51.324;4.590;2023-01-29T00:55:22;79.90;;;39.25;;
23185;SDS011;11761;51.324;4.590;2023-01-29T00:57:48;76.53;;;37.05;;
23185;SDS011;11761;51.324;4.590;2023-01-29T01:00:15;76.65;;;37.80;;
23185;SDS011;11761;51.324;4.590;2023-01-29T01:02:43;76.15;;;36.42;;
23185;SDS011;11761;51.324;4.590;2023-01-29T01:05:28;72.97;;;36.15;;
23185;SDS011;11761;51.324;4.590;2023-01-29T01:07:55;74.40;;;34.67;;
23185;SDS011;11761;51.324;4.590;2023-01-29T01:10:27;73.60;;;35.80;;
23185;SDS011;11761;51.324;4.590;2023-01-29T01:12:59;73.68;;;36.83;;
23185;SDS011;11761;51.324;4.590;2023-01-29T01:15:34;81.15;;;37.03;;
23185;SDS011;11761;51.324;4.590;2023-01-29T01:18:02;75.78;;;38.08;;
23185;SDS011;11761;51.324;4.590;2023-01-29T01:20:29;79.25;;;38.42;;
23185;SDS011;11761;51.324;4.590;2023-01-29T01:22:57;79.85;;;38.95;;
23185;SDS011;11761;51.324;4.590;2023-01-29T01:25:24;82.45;;;38.72;;
23185;SDS011;11761;51.324;4.590;2023-01-29T01:27:55;84.13;;;38.72;;
23185;SDS011;11761;51.324;4.590;2023-01-29T01:30:22;77.80;;;36.65;;
23185;SDS011;11761;51.324;4.590;2023-01-29T01:32:49;89.97;;;39.58;;
23185;SDS011;11761;51.324;4.590;2023-01-29T01:35:15;93.03;;;43.28;;
23185;SDS011;11761;51.324;4.590;2023-01-29T01:37:41;88.25;;;41.63;;
23185;SDS011;11761;51.324;4.590;2023-01-29T01:40:10;88.50;;;40.90;;
23185;SDS011;11761;51.324;4.590;2023-01-29T01:43:04;82.78;;;37.20;;
23185;SDS011;11761;51.324;4.590;2023-01-29T01:45:31;88.15;;;41.05;;
23185;SDS011;11761;51.324;4.590;2023-01-29T01:50:37;95.43;;;38.08;;
23185;SDS011;11761;51.324;4.590;2023-01-29T01:53:23;89.90;;;37.67;;
23185;SDS011;11761;51.324;4.590;2023-01-29T01:55:57;90.88;;;39.33;;
23185;SDS011;11761;51.324;4.590;2023-01-29T01:58:34;91.32;;;38.75;;
23185;SDS011;11761;51.324;4.590;2023-01-29T02:01:05;91.03;;;38.10;;
23185;SDS011;11761;51.324;4.590;2023-01-29T02:03:38;86.97;;;38.25;;
23185;SDS011;11761;51.324;4.590;2023-01-29T02:06:34;93.38;;;39.72;;
23185;SDS011;11761;51.324;4.590;2023-01-29T02:09:23;88.63;;;38.40;;
23185;SDS011;11761;51.324;4.590;2023-01-29T02:11:57;89.30;;;39.78;;
23185;SDS011;11761;51.324;4.590;2023-01-29T02:14:23;90.00;;;40.40;;
23185;SDS011;11761;51.324;4.590;2023-01-29T02:16:50;88.75;;;38.15;;
23185;SDS011;11761;51.324;4.590;2023-01-29T02:19:53;85.30;;;39.03;;
23185;SDS011;11761;51.324;4.590;2023-01-29T02:25:02;87.75;;;38.22;;
23185;SDS011;11761;51.324;4.590;2023-01-29T02:30:25;102.50;;;39.90;;
23185;SDS011;11761;51.324;4.590;2023-01-29T02:33:15;86.28;;;39.85;;
23185;SDS011;11761;51.324;4.590;2023-01-29T02:35:54;86.70;;;38.88;;
23185;SDS011;11761;51.324;4.590;2023-01-29T02:38:39;82.38;;;39.35;;
23185;SDS011;11761;51.324;4.590;2023-01-29T02:41:32;79.78;;;37.25;;
23185;SDS011;11761;51.324;4.590;2023-01-29T02:44:05;84.82;;;40.40;;
23185;SDS011;11761;51.324;4.590;2023-01-29T02:46:45;82.80;;;37.78;;
23185;SDS011;11761;51.324;4.590;2023-01-29T02:57:24;76.70;;;36.75;;
23185;SDS011;11761;51.324;4.590;2023-01-29T02:59:55;74.00;;;35.47;;
23185;SDS011;11761;51.324;4.590;2023-01-29T03:02:31;74.57;;;36.05;;
23185;SDS011;11761;51.324;4.590;2023-01-29T03:05:00;76.68;;;35.72;;
23185;SDS011;11761;51.324;4.590;2023-01-29T03:07:31;72.20;;;35.45;;
23185;SDS011;11761;51.324;4.590;2023-01-29T03:10:15;72.40;;;35.88;;
23185;SDS011;11761;51.324;4.590;2023-01-29T03:12:50;72.38;;;35.40;;
23185;SDS011;11761;51.324;4.590;2023-01-29T03:15:22;76.30;;;36.17;;
23185;SDS011;11761;51.324;4.590;2023-01-29T03:17:59;74.85;;;36.88;;
23185;SDS011;11761;51.324;4.590;2023-01-29T03:20:43;72.55;;;34.40;;
23185;SDS011;11761;51.324;4.590;2023-01-29T03:23:20;66.63;;;33.35;;
23185;SDS011;11761;51.324;4.590;2023-01-29T03:26:09;66.65;;;34.22;;
23185;SDS011;11761;51.324;4.590;2023-01-29T03:28:56;66.30;;;32.83;;
23185;SDS011;11761;51.324;4.590;2023-01-29T03:31:43;61.78;;;32.92;;
23185;SDS011;11761;51.324;4.590;2023-01-29T03:34:29;68.25;;;33.60;;
23185;SDS011;11761;51.324;4.590;2023-01-29T03:37:07;69.55;;;32.63;;
23185;SDS011;11761;51.324;4.590;2023-01-29T03:39:40;64.85;;;32.65;;
23185;SDS011;11761;51.324;4.590;2023-01-29T03:44:59;61.63;;;31.98;;
23185;SDS011;11761;51.324;4.590;2023-01-29T03:51:00;60.65;;;30.25;;
23185;SDS011;11761;51.324;4.590;2023-01-29T03:53:42;61.40;;;30.75;;
23185;SDS011;11761;51.324;4.590;2023-01-29T04:01:53;59.10;;;29.40;;
23185;SDS011;11761;51.324;4.590;2023-01-29T04:04:35;59.95;;;30.67;;
23185;SDS011;11761;51.324;4.590;2023-01-29T04:07:05;56.38;;;30.58;;
23185;SDS011;11761;51.324;4.590;2023-01-29T04:09:41;57.88;;;28.75;;
23185;SDS011;11761;51.324;4.590;2023-01-29T04:12:12;55.58;;;29.30;;
23185;SDS011;11761;51.324;4.590;2023-01-29T04:14:42;55.17;;;29.63;;
23185;SDS011;11761;51.324;4.590;2023-01-29T04:17:15;52.95;;;28.50;;
23185;SDS011;11761;51.324;4.590;2023-01-29T04:19:47;53.80;;;28.98;;
23185;SDS011;11761;51.324;4.590;2023-01-29T04:22:16;54.05;;;28.00;;
23185;SDS011;11761;51.324;4.590;2023-01-29T04:24:47;53.75;;;28.73;;
23185;SDS011;11761;51.324;4.590;2023-01-29T04:32:58;55.90;;;28.90;;
23185;SDS011;11761;51.324;4.590;2023-01-29T04:35:45;56.15;;;29.50;;
23185;SDS011;11761;51.324;4.590;2023-01-29T04:39:10;55.78;;;29.45;;
23185;SDS011;11761;51.324;4.590;2023-01-29T04:41:30;57.58;;;29.52;;
23185;SDS011;11761;51.324;4.590;2023-01-29T04:49:19;52.38;;;27.50;;
23185;SDS011;11761;51.324;4.590;2023-01-29T04:54:50;51.45;;;27.63;;
23185;SDS011;11761;51.324;4.590;2023-01-29T04:57:33;55.70;;;29.63;;
23185;SDS011;11761;51.324;4.590;2023-01-29T05:00:13;53.25;;;27.45;;
23185;SDS011;11761;51.324;4.590;2023-01-29T05:02:44;52.97;;;30.20;;
23185;SDS011;11761;51.324;4.590;2023-01-29T05:05:12;51.67;;;27.60;;
23185;SDS011;11761;51.324;4.590;2023-01-29T05:07:39;55.40;;;29.13;;
23185;SDS011;11761;51.324;4.590;2023-01-29T05:10:08;57.20;;;29.23;;
23185;SDS011;11761;51.324;4.590;2023-01-29T05:12:36;51.25;;;28.33;;
23185;SDS011;11761;51.324;4.590;2023-01-29T05:15:04;50.67;;;27.98;;
23185;SDS011;11761;51.324;4.590;2023-01-29T05:17:35;53.10;;;27.77;;
23185;SDS011;11761;51.324;4.590;2023-01-29T05:20:01;50.20;;;27.73;;
23185;SDS011;11761;51.324;4.590;2023-01-29T05:22:27;51.53;;;28.45;;
23185;SDS011;11761;51.324;4.590;2023-01-29T05:24:54;54.03;;;27.25;;
23185;SDS011;11761;51.324;4.590;2023-01-29T05:27:21;58.22;;;29.75;;
23185;SDS011;11761;51.324;4.590;2023-01-29T05:30:14;53.08;;;28.70;;
23185;SDS011;11761;51.324;4.590;2023-01-29T05:32:40;54.10;;;27.38;;
23185;SDS011;11761;51.324;4.590;2023-01-29T05:35:06;55.40;;;28.75;;
23185;SDS011;11761;51.324;4.590;2023-01-29T05:37:32;53.63;;;28.23;;
23185;SDS011;11761;51.324;4.590;2023-01-29T05:39:58;52.10;;;27.27;;
23185;SDS011;11761;51.324;4.590;2023-01-29T05:42:23;49.35;;;27.70;;
23185;SDS011;11761;51.324;4.590;2023-01-29T05:44:50;52.35;;;28.48;;
23185;SDS011;11761;51.324;4.590;2023-01-29T05:47:19;51.88;;;27.33;;
23185;SDS011;11761;51.324;4.590;2023-01-29T05:49:45;55.10;;;27.02;;
23185;SDS011;11761;51.324;4.590;2023-01-29T05:52:11;49.08;;;26.52;;
23185;SDS011;11761;51.324;4.590;2023-01-29T05:54:37;51.85;;;27.55;;
23185;SDS011;11761;51.324;4.590;2023-01-29T05:57:03;54.80;;;28.15;;
23185;SDS011;11761;51.324;4.590;2023-01-29T05:59:29;51.17;;;27.05;;
23185;SDS011;11761;51.324;4.590;2023-01-29T06:01:56;50.17;;;26.58;;
23185;SDS011;11761;51.324;4.590;2023-01-29T06:04:22;51.35;;;27.50;;
23185;SDS011;11761;51.324;4.590;2023-01-29T06:06:48;55.85;;;28.02;;
23185;SDS011;11761;51.324;4.590;2023-01-29T06:09:14;57.78;;;28.90;;
23185;SDS011;11761;51.324;4.590;2023-01-29T06:11:40;49.58;;;27.35;;
23185;SDS011;11761;51.324;4.590;2023-01-29T06:14:06;53.72;;;27.38;;
23185;SDS011;11761;51.324;4.590;2023-01-29T06:16:32;51.13;;;26.75;;
23185;SDS011;11761;51.324;4.590;2023-01-29T06:18:58;50.65;;;27.90;;
23185;SDS011;11761;51.324;4.590;2023-01-29T06:21:24;53.17;;;25.73;;
23185;SDS011;11761;51.324;4.590;2023-01-29T06:23:53;52.30;;;26.65;;
23185;SDS011;11761;51.324;4.590;2023-01-29T06:26:19;47.15;;;25.20;;
23185;SDS011;11761;51.324;4.590;2023-01-29T06:28:47;48.20;;;25.77;;
23185;SDS011;11761;51.324;4.590;2023-01-29T06:31:14;49.80;;;25.15;;
23185;SDS011;11761;51.324;4.590;2023-01-29T06:33:41;50.78;;;25.30;;
23185;SDS011;11761;51.324;4.590;2023-01-29T06:36:07;46.60;;;24.98;;
23185;SDS011;11761;51.324;4.590;2023-01-29T06:38:33;53.10;;;27.17;;
23185;SDS011;11761;51.324;4.590;2023-01-29T06:41:06;47.13;;;24.85;;
23185;SDS011;11761;51.324;4.590;2023-01-29T06:43:36;50.60;;;24.73;;
23185;SDS011;11761;51.324;4.590;2023-01-29T06:46:05;47.22;;;25.25;;
23185;SDS011;11761;51.324;4.590;2023-01-29T06:48:32;47.78;;;24.45;;
23185;SDS011;11761;51.324;4.590;2023-01-29T06:51:02;50.65;;;26.13;;
23185;SDS011;11761;51.324;4.590;2023-01-29T06:53:29;51.25;;;24.95;;
23185;SDS011;11761;51.324;4.590;2023-01-29T06:55:56;48.03;;;25.17;;
23185;SDS011;11761;51.324;4.590;2023-01-29T06:58:22;46.83;;;23.90;;
23185;SDS011;11761;51.324;4.590;2023-01-29T07:00:48;49.47;;;25.50;;
23185;SDS011;11761;51.324;4.590;2023-01-29T07:03:14;46.38;;;24.08;;
23185;SDS011;11761;51.324;4.590;2023-01-29T07:05:40;46.05;;;24.15;;
23185;SDS011;11761;51.324;4.590;2023-01-29T07:08:06;48.22;;;24.95;;
23185;SDS011;11761;51.324;4.590;2023-01-29T07:10:34;50.65;;;24.33;;
23185;SDS011;11761;51.324;4.590;2023-01-29T07:13:00;47.83;;;23.30;;
23185;SDS011;11761;51.324;4.590;2023-01-29T07:15:26;48.10;;;24.83;;
23185;SDS011;11761;51.324;4.590;2023-01-29T07:17:59;50.28;;;25.17;;
23185;SDS011;11761;51.324;4.590;2023-01-29T07:20:27;46.00;;;24.38;;
23185;SDS011;11761;51.324;4.590;2023-01-29T07:22:55;49.42;;;25.25;;
23185;SDS011;11761;51.324;4.590;2023-01-29T07:25:22;50.45;;;24.92;;
23185;SDS011;11761;51.324;4.590;2023-01-29T07:27:48;48.33;;;24.60;;
23185;SDS011;11761;51.324;4.590;2023-01-29T07:30:14;52.10;;;25.15;;
23185;SDS011;11761;51.324;4.590;2023-01-29T07:32:42;47.33;;;24.17;;
23185;SDS011;11761;51.324;4.590;2023-01-29T07:35:08;49.85;;;24.98;;
23185;SDS011;11761;51.324;4.590;2023-01-29T07:37:35;51.40;;;25.42;;
23185;SDS011;11761;51.324;4.590;2023-01-29T07:40:01;49.00;;;24.95;;
23185;SDS011;11761;51.324;4.590;2023-01-29T07:42:29;50.88;;;24.73;;
23185;SDS011;11761;51.324;4.590;2023-01-29T07:44:55;54.40;;;25.85;;
23185;SDS011;11761;51.324;4.590;2023-01-29T07:47:21;49.17;;;24.70;;
23185;SDS011;11761;51.324;4.590;2023-01-29T07:49:47;48.92;;;24.67;;
23185;SDS011;11761;51.324;4.590;2023-01-29T07:52:13;49.72;;;25.20;;
23185;SDS011;11761;51.324;4.590;2023-01-29T07:54:39;47.67;;;24.88;;
23185;SDS011;11761;51.324;4.590;2023-01-29T07:57:05;47.22;;;23.88;;
23185;SDS011;11761;51.324;4.590;2023-01-29T07:59:31;48.33;;;23.98;;
23185;SDS011;11761;51.324;4.590;2023-01-29T08:01:57;50.42;;;26.95;;
23185;SDS011;11761;51.324;4.590;2023-01-29T08:04:24;52.10;;;24.90;;
23185;SDS011;11761;51.324;4.590;2023-01-29T08:06:50;52.05;;;24.15;;
23185;SDS011;11761;51.324;4.590;2023-01-29T08:09:16;51.45;;;26.50;;
23185;SDS011;11761;51.324;4.590;2023-01-29T08:11:42;50.92;;;24.90;;
23185;SDS011;11761;51.324;4.590;2023-01-29T08:14:08;49.97;;;25.25;;
23185;SDS011;11761;51.324;4.590;2023-01-29T08:16:35;51.08;;;26.33;;
23185;SDS011;11761;51.324;4.590;2023-01-29T08:19:01;51.72;;;26.17;;
23185;SDS011;11761;51.324;4.590;2023-01-29T08:21:27;49.45;;;24.35;;
23185;SDS011;11761;51.324;4.590;2023-01-29T08:23:53;50.78;;;25.38;;
23185;SDS011;11761;51.324;4.590;2023-01-29T08:26:20;49.03;;;25.33;;
23185;SDS011;11761;51.324;4.590;2023-01-29T08:28:46;42.15;;;18.98;;
23185;SDS011;11761;51.324;4.590;2023-01-29T08:31:16;41.42;;;19.50;;
23185;SDS011;11761;51.324;4.590;2023-01-29T08:33:45;45.55;;;19.13;;
23185;SDS011;11761;51.324;4.590;2023-01-29T08:36:11;44.85;;;18.77;;
23185;SDS011;11761;51.324;4.590;2023-01-29T08:38:37;43.13;;;19.02;;
23185;SDS011;11761;51.324;4.590;2023-01-29T08:41:04;44.80;;;19.25;;
23185;SDS011;11761;51.324;4.590;2023-01-29T08:43:30;44.50;;;18.75;;
23185;SDS011;11761;51.324;4.590;2023-01-29T08:45:56;43.50;;;19.17;;
23185;SDS011;11761;51.324;4.590;2023-01-29T08:48:22;39.13;;;19.08;;
23185;SDS011;11761;51.324;4.590;2023-01-29T08:50:49;38.17;;;19.30;;
23185;SDS011;11761;51.324;4.590;2023-01-29T08:53:16;37.05;;;17.55;;
23185;SDS011;11761;51.324;4.590;2023-01-29T08:55:44;42.28;;;17.55;;
23185;SDS011;11761;51.324;4.590;2023-01-29T08:58:10;38.42;;;16.13;;
23185;SDS011;11761;51.324;4.590;2023-01-29T09:00:37;36.25;;;16.33;;
23185;SDS011;11761;51.324;4.590;2023-01-29T09:03:03;39.42;;;17.70;;
23185;SDS011;11761;51.324;4.590;2023-01-29T09:05:33;40.75;;;17.92;;
23185;SDS011;11761;51.324;4.590;2023-01-29T09:07:59;38.00;;;18.42;;
23185;SDS011;11761;51.324;4.590;2023-01-29T09:10:25;38.05;;;17.13;;
23185;SDS011;11761;51.324;4.590;2023-01-29T09:12:51;39.00;;;18.10;;
23185;SDS011;11761;51.324;4.590;2023-01-29T09:15:17;39.83;;;18.10;;
23185;SDS011;11761;51.324;4.590;2023-01-29T09:17:43;37.05;;;17.63;;
23185;SDS011;11761;51.324;4.590;2023-01-29T09:20:10;39.88;;;17.92;;
23185;SDS011;11761;51.324;4.590;2023-01-29T09:22:36;38.65;;;17.25;;
23185;SDS011;11761;51.324;4.590;2023-01-29T09:25:02;42.85;;;19.33;;
23185;SDS011;11761;51.324;4.590;2023-01-29T09:27:29;36.63;;;17.02;;
23185;SDS011;11761;51.324;4.590;2023-01-29T09:29:55;38.15;;;16.92;;
23185;SDS011;11761;51.324;4.590;2023-01-29T09:32:21;36.05;;;16.27;;
23185;SDS011;11761;51.324;4.590;2023-01-29T09:34:47;39.40;;;16.20;;
23185;SDS011;11761;51.324;4.590;2023-01-29T09:37:13;35.33;;;16.40;;
23185;SDS011;11761;51.324;4.590;2023-01-29T09:39:42;36.08;;;16.63;;
23185;SDS011;11761;51.324;4.590;2023-01-29T09:42:17;32.95;;;15.75;;
23185;SDS011;11761;51.324;4.590;2023-01-29T09:47:22;35.33;;;16.13;;
23185;SDS011;11761;51.324;4.590;2023-01-29T09:49:51;32.50;;;15.10;;
23185;SDS011;11761;51.324;4.590;2023-01-29T09:52:24;37.28;;;18.08;;
23185;SDS011;11761;51.324;4.590;2023-01-29T09:58:02;33.78;;;16.50;;
23185;SDS011;11761;51.324;4.590;2023-01-29T10:09:30;30.58;;;15.43;;
23185;SDS011;11761;51.324;4.590;2023-01-29T10:12:27;29.73;;;14.65;;
23185;SDS011;11761;51.324;4.590;2023-01-29T10:21:04;34.05;;;15.23;;
23185;SDS011;11761;51.324;4.590;2023-01-29T10:23:32;29.17;;;14.15;;
23185;SDS011;11761;51.324;4.590;2023-01-29T10:26:01;30.92;;;14.45;;
23185;SDS011;11761;51.324;4.590;2023-01-29T10:28:32;33.75;;;16.08;;
23185;SDS011;11761;51.324;4.590;2023-01-29T10:31:19;29.88;;;15.13;;
23185;SDS011;11761;51.324;4.590;2023-01-29T10:34:01;39.72;;;15.80;;
23185;SDS011;11761;51.324;4.590;2023-01-29T10:36:55;34.50;;;15.90;;
23185;SDS011;11761;51.324;4.590;2023-01-29T10:39:22;33.92;;;15.57;;
23185;SDS011;11761;51.324;4.590;2023-01-29T10:49:54;33.00;;;14.95;;
23185;SDS011;11761;51.324;4.590;2023-01-29T11:00:37;28.23;;;14.15;;
23185;SDS011;11761;51.324;4.590;2023-01-29T11:03:38;27.85;;;14.93;;
23185;SDS011;11761;51.324;4.590;2023-01-29T11:08:41;32.70;;;14.80;;
23185;SDS011;11761;51.324;4.590;2023-01-29T11:11:18;32.10;;;15.05;;
23185;SDS011;11761;51.324;4.590;2023-01-29T11:13:52;34.03;;;15.50;;
23185;SDS011;11761;51.324;4.590;2023-01-29T11:16:22;26.65;;;13.68;;
23185;SDS011;11761;51.324;4.590;2023-01-29T11:21:19;29.33;;;14.98;;
23185;SDS011;11761;51.324;4.590;2023-01-29T11:23:45;30.70;;;13.95;;
23185;SDS011;11761;51.324;4.590;2023-01-29T11:26:12;30.10;;;15.02;;
23185;SDS011;11761;51.324;4.590;2023-01-29T11:28:44;30.08;;;15.93;;
23185;SDS011;11761;51.324;4.590;2023-01-29T11:31:24;32.15;;;17.02;;
23185;SDS011;11761;51.324;4.590;2023-01-29T11:34:00;37.05;;;18.88;;
23185;SDS011;11761;51.324;4.590;2023-01-29T11:36:34;32.63;;;17.85;;
23185;SDS011;11761;51.324;4.590;2023-01-29T11:39:16;32.17;;;17.10;;
23185;SDS011;11761;51.324;4.590;2023-01-29T11:41:58;32.90;;;17.35;;
23185;SDS011;11761;51.324;4.590;2023-01-29T11:44:32;32.58;;;17.00;;
23185;SDS011;11761;51.324;4.590;2023-01-29T11:49:52;33.75;;;17.27;;
23185;SDS011;11761;51.324;4.590;2023-01-29T11:52:21;28.85;;;16.95;;
23185;SDS011;11761;51.324;4.590;2023-01-29T11:57:31;30.50;;;17.35;;
23185;SDS011;11761;51.324;4.590;2023-01-29T12:00:03;30.48;;;16.38;;
23185;SDS011;11761;51.324;4.590;2023-01-29T12:02:48;27.95;;;15.63;;
23185;SDS011;11761;51.324;4.590;2023-01-29T12:05:20;29.60;;;16.65;;
23185;SDS011;11761;51.324;4.590;2023-01-29T12:07:50;30.02;;;16.55;;
23185;SDS011;11761;51.324;4.590;2023-01-29T12:15:35;31.80;;;16.38;;
23185;SDS011;11761;51.324;4.590;2023-01-29T12:20:53;30.30;;;15.98;;
23185;SDS011;11761;51.324;4.590;2023-01-29T12:26:15;28.83;;;15.85;;
23185;SDS011;11761;51.324;4.590;2023-01-29T12:34:34;28.98;;;15.52;;
23185;SDS011;11761;51.324;4.590;2023-01-29T12:39:45;26.10;;;14.55;;
23185;SDS011;11761;51.324;4.590;2023-01-29T12:42:18;28.02;;;15.02;;
23185;SDS011;11761;51.324;4.590;2023-01-29T12:44:51;27.20;;;15.77;;
23185;SDS011;11761;51.324;4.590;2023-01-29T12:49:56;27.33;;;14.60;;
23185;SDS011;11761;51.324;4.590;2023-01-29T12:52:38;28.70;;;15.43;;
23185;SDS011;11761;51.324;4.590;2023-01-29T12:57:59;26.23;;;14.90;;
23185;SDS011;11761;51.324;4.590;2023-01-29T13:00:34;24.60;;;13.05;;
23185;SDS011;11761;51.324;4.590;2023-01-29T13:03:24;25.85;;;14.52;;
23185;SDS011;11761;51.324;4.590;2023-01-29T13:05:55;25.67;;;14.40;;
23185;SDS011;11761;51.324;4.590;2023-01-29T13:11:00;25.95;;;15.00;;
23185;SDS011;11761;51.324;4.590;2023-01-29T13:13:37;28.25;;;14.85;;
23185;SDS011;11761;51.324;4.590;2023-01-29T13:16:17;26.73;;;14.13;;
23185;SDS011;11761;51.324;4.590;2023-01-29T13:21:45;25.92;;;13.88;;
23185;SDS011;11761;51.324;4.590;2023-01-29T13:24:16;27.23;;;14.80;;
23185;SDS011;11761;51.324;4.590;2023-01-29T13:26:46;27.35;;;14.68;;
23185;SDS011;11761;51.324;4.590;2023-01-29T13:29:23;32.03;;;16.98;;
23185;SDS011;11761;51.324;4.590;2023-01-29T13:31:51;28.83;;;16.02;;
23185;SDS011;11761;51.324;4.590;2023-01-29T13:34:23;30.50;;;15.40;;
23185;SDS011;11761;51.324;4.590;2023-01-29T13:37:10;46.60;;;26.52;;
23185;SDS011;11761;51.324;4.590;2023-01-29T13:39:47;37.55;;;20.45;;
23185;SDS011;11761;51.324;4.590;2023-01-29T13:42:17;33.70;;;20.00;;
23185;SDS011;11761;51.324;4.590;2023-01-29T13:44:47;38.17;;;20.50;;
23185;SDS011;11761;51.324;4.590;2023-01-29T13:47:28;29.67;;;16.35;;
23185;SDS011;11761;51.324;4.590;2023-01-29T13:49:58;34.40;;;18.23;;
23185;SDS011;11761;51.324;4.590;2023-01-29T13:52:51;40.50;;;20.90;;
23185;SDS011;11761;51.324;4.590;2023-01-29T13:55:34;46.28;;;23.15;;
23185;SDS011;11761;51.324;4.590;2023-01-29T13:58:06;52.75;;;31.80;;
23185;SDS011;11761;51.324;4.590;2023-01-29T14:00:53;33.22;;;19.55;;
23185;SDS011;11761;51.324;4.590;2023-01-29T14:03:41;30.30;;;15.43;;
23185;SDS011;11761;51.324;4.590;2023-01-29T14:06:07;50.50;;;28.63;;
23185;SDS011;11761;51.324;4.590;2023-01-29T14:11:26;28.80;;;16.30;;
23185;SDS011;11761;51.324;4.590;2023-01-29T14:13:46;29.23;;;17.73;;
23185;SDS011;11761;51.324;4.590;2023-01-29T14:18:47;37.55;;;21.40;;
23185;SDS011;11761;51.324;4.590;2023-01-29T14:21:25;31.05;;;18.05;;
23185;SDS011;11761;51.324;4.590;2023-01-29T14:23:57;28.55;;;16.98;;
23185;SDS011;11761;51.324;4.590;2023-01-29T14:34:49;35.80;;;20.23;;
23185;SDS011;11761;51.324;4.590;2023-01-29T14:37:41;32.50;;;14.82;;
23185;SDS011;11761;51.324;4.590;2023-01-29T14:53:04;24.83;;;13.85;;
23185;SDS011;11761;51.324;4.590;2023-01-29T14:58:22;30.50;;;15.05;;
23185;SDS011;11761;51.324;4.590;2023-01-29T15:00:59;32.13;;;16.10;;
23185;SDS011;11761;51.324;4.590;2023-01-29T15:03:45;29.50;;;16.00;;
23185;SDS011;11761;51.324;4.590;2023-01-29T15:06:46;25.23;;;14.55;;
23185;SDS011;11761;51.324;4.590;2023-01-29T15:12:27;28.20;;;14.80;;
23185;SDS011;11761;51.324;4.590;2023-01-29T15:15:10;31.23;;;15.35;;
23185;SDS011;11761;51.324;4.590;2023-01-29T15:20:49;28.27;;;14.10;;
23185;SDS011;11761;51.324;4.590;2023-01-29T15:25:58;26.70;;;13.27;;
23185;SDS011;11761;51.324;4.590;2023-01-29T15:28:27;26.27;;;14.18;;
23185;SDS011;11761;51.324;4.590;2023-01-29T15:30:58;31.98;;;14.95;;
23185;SDS011;11761;51.324;4.590;2023-01-29T15:33:26;29.75;;;15.68;;
23185;SDS011;11761;51.324;4.590;2023-01-29T15:35:57;27.92;;;14.55;;
23185;SDS011;11761;51.324;4.590;2023-01-29T15:38:24;32.95;;;15.98;;
23185;SDS011;11761;51.324;4.590;2023-01-29T15:40:58;28.48;;;14.88;;
23185;SDS011;11761;51.324;4.590;2023-01-29T15:43:30;26.83;;;14.63;;
23185;SDS011;11761;51.324;4.590;2023-01-29T15:46:00;27.23;;;14.65;;
23185;SDS011;11761;51.324;4.590;2023-01-29T15:48:30;25.20;;;13.68;;
23185;SDS011;11761;51.324;4.590;2023-01-29T15:51:01;23.77;;;13.18;;
23185;SDS011;11761;51.324;4.590;2023-01-29T15:53:34;25.23;;;13.55;;
23185;SDS011;11761;51.324;4.590;2023-01-29T15:56:09;24.95;;;13.77;;
23185;SDS011;11761;51.324;4.590;2023-01-29T15:58:37;28.70;;;13.80;;
23185;SDS011;11761;51.324;4.590;2023-01-29T16:01:04;28.48;;;14.38;;
23185;SDS011;11761;51.324;4.590;2023-01-29T16:03:31;32.58;;;18.60;;
23185;SDS011;11761;51.324;4.590;2023-01-29T16:05:59;28.63;;;16.85;;
23185;SDS011;11761;51.324;4.590;2023-01-29T16:08:26;31.70;;;17.65;;
23185;SDS011;11761;51.324;4.590;2023-01-29T16:10:56;33.60;;;19.73;;
23185;SDS011;11761;51.324;4.590;2023-01-29T16:13:26;34.55;;;18.45;;
23185;SDS011;11761;51.324;4.590;2023-01-29T16:15:58;41.92;;;20.65;;
23185;SDS011;11761;51.324;4.590;2023-01-29T16:18:36;32.38;;;17.77;;
23185;SDS011;11761;51.324;4.590;2023-01-29T16:21:05;37.25;;;19.17;;
23185;SDS011;11761;51.324;4.590;2023-01-29T16:26:11;39.55;;;25.95;;
23185;SDS011;11761;51.324;4.590;2023-01-29T16:28:41;34.00;;;19.10;;
23185;SDS011;11761;51.324;4.590;2023-01-29T16:31:13;35.30;;;19.55;;
23185;SDS011;11761;51.324;4.590;2023-01-29T16:33:46;34.78;;;18.77;;
23185;SDS011;11761;51.324;4.590;2023-01-29T16:36:23;34.80;;;19.05;;
23185;SDS011;11761;51.324;4.590;2023-01-29T16:39:01;34.50;;;20.50;;
23185;SDS011;11761;51.324;4.590;2023-01-29T16:41:34;30.92;;;19.27;;
23185;SDS011;11761;51.324;4.590;2023-01-29T16:44:03;33.92;;;19.30;;
23185;SDS011;11761;51.324;4.590;2023-01-29T16:46:56;31.42;;;17.63;;
23185;SDS011;11761;51.324;4.590;2023-01-29T16:52:14;36.08;;;19.60;;
23185;SDS011;11761;51.324;4.590;2023-01-29T16:54:43;34.45;;;18.35;;
23185;SDS011;11761;51.324;4.590;2023-01-29T16:57:10;34.55;;;18.52;;
23185;SDS011;11761;51.324;4.590;2023-01-29T16:59:51;37.22;;;20.35;;
23185;SDS011;11761;51.324;4.590;2023-01-29T17:02:30;32.97;;;19.73;;
23185;SDS011;11761;51.324;4.590;2023-01-29T17:04:59;36.22;;;21.00;;
23185;SDS011;11761;51.324;4.590;2023-01-29T17:07:29;40.78;;;22.15;;
23185;SDS011;11761;51.324;4.590;2023-01-29T17:09:57;36.35;;;20.33;;
23185;SDS011;11761;51.324;4.590;2023-01-29T17:12:26;33.65;;;20.00;;
23185;SDS011;11761;51.324;4.590;2023-01-29T17:14:55;32.25;;;18.15;;
23185;SDS011;11761;51.324;4.590;2023-01-29T17:17:30;36.15;;;20.33;;
23185;SDS011;11761;51.324;4.590;2023-01-29T17:20:01;36.63;;;20.00;;
23185;SDS011;11761;51.324;4.590;2023-01-29T17:22:38;40.53;;;20.30;;
23185;SDS011;11761;51.324;4.590;2023-01-29T17:25:04;36.72;;;19.33;;
23185;SDS011;11761;51.324;4.590;2023-01-29T17:27:31;39.15;;;21.70;;
23185;SDS011;11761;51.324;4.590;2023-01-29T17:29:57;44.72;;;23.67;;